Terminal Aerodrome Forecast
Issued by NWS

Home | Current Version | Previous Version | Text Only | Print | Product List | Glossary On
Versions: 1 2 3 4 5 6 7 8 9 10 11 12 13 14 15 16 17 18 19 20 21 22 23 24 25 26 27 28 29 30 31 32 33 34 35 36 37 38 39 40 41 42 43 44 45
000
FTUS43 KMKX 300724 AAA
TAFUES
TAF AMD
KUES 300724Z 3007/3106 19004KT P6SM VCTS SCT040CB BKN150
     FM300900 19008KT P6SM VCTS SCT025 BKN035CB
     FM301100 20007KT P6SM VCSH SCT015 OVC025
      TEMPO 3011/3013 5SM -SHRA BKN015
     FM301300 22010KT 6SM -SHRA OVC018
     FM301700 24010KT P6SM VCTS BKN025CB
     FM310100 22005KT P6SM SCT030=

USA.gov is the U.S. government's official web portal to all federal, state and local government web resources and services.